Time;durP1;ratioP1;P1;durP2;ratioP2;P2;SDS_P1;SDS_P2;PMS_P1;PMS_P2;Temp;Humidity;BMP_temperature;BMP_pressure;BME280_temperature;BME280_humidity;BME280_pressure;Samples;Min_cycle;Max_cycle;Signal;HPM_P1;HPM_P2
2021/11/06 00:00:47;;;;;;;;;;;;;;;;;;5134848;27;19935;-80
2021/11/06 00:03:14;;;;;;;;;;;;;;;;;;5134860;27;19924;-79
2021/11/06 00:05:42;;;;;;;;;;;;;;;;;;5134303;27;19927;-79
2021/11/06 00:08:09;;;;;;;;;;;;;;;;;;5134369;27;19924;-78
2021/11/06 00:10:36;;;;;;;;;;;;;;;;;;5134327;27;19923;-79
2021/11/06 00:13:04;;;;;;;;;;;;;;;;;;5122527;27;19927;-79
2021/11/06 00:15:32;;;;;;;;;;;;;;;;;;5134394;27;19927;-78
2021/11/06 00:17:59;;;;;;;;;;;;;;;;;;5134193;27;20275;-79
2021/11/06 00:20:26;;;;;;;;;;;;;;;;;;5134096;27;19935;-80
2021/11/06 00:22:53;;;;;;;;;;;;;;;;;;5134034;27;20391;-79
2021/11/06 00:25:20;;;;;;;;;;;;;;;;;;5134591;27;19927;-79
2021/11/06 00:27:48;;;;;;;;;;;;;;;;;;5134262;27;19927;-77
2021/11/06 00:30:16;;;;;;;;;;;;;;;;;;5134125;27;20348;-78
2021/11/06 00:32:44;;;;;;;;;;;;;;;;;;5133802;27;19935;-78
2021/11/06 00:35:11;;;;;;;;;;;;;;;;;;5133029;27;19931;-78
2021/11/06 00:37:39;;;;;;;;;;;;;;;;;;5134116;27;20271;-81
2021/11/06 00:40:07;;;;;;;;;;;;;;;;;;5133852;27;19935;-80
2021/11/06 00:42:35;;;;;;;;;;;;;;;;;;5133871;27;19924;-80
2021/11/06 00:45:02;;;;;;;;;;;;;;;;;;5133662;27;19924;-80
2021/11/06 00:47:30;;;;;;;;;;;;;;;;;;5133798;27;20010;-79
2021/11/06 00:49:57;;;;;;;;;;;;;;;;;;5133563;27;20490;-77
2021/11/06 00:52:25;;;;;;;;;;;;;;;;;;5134163;27;19924;-78
2021/11/06 00:54:52;;;;;;;;;;;;;;;;;;5133263;27;20014;-78
2021/11/06 00:57:19;;;;;;;;;;;;;;;;;;5133674;27;19928;-78
2021/11/06 00:59:47;;;;;;;;;;;;;;;;;;5133214;27;19937;-78
2021/11/06 01:02:14;;;;;;;;;;;;;;;;;;5134145;27;20336;-77
2021/11/06 01:04:42;;;;;;;;;;;;;;;;;;5133378;27;19939;-78
2021/11/06 01:07:09;;;;;;;;;;;;;;;;;;5133025;27;19923;-78
2021/11/06 01:09:36;;;;;;;;;;;;;;;;;;5133150;27;19923;-77
2021/11/06 01:12:04;;;;;;;;;;;;;;;;;;5128728;27;19935;-78
2021/11/06 01:14:31;;;;;;;;;;;;;;;;;;5126289;27;19924;-77
2021/11/06 01:16:58;;;;;;;;;;;;;;;;;;5133392;27;19927;-79
2021/11/06 01:19:25;;;;;;;;;;;;;;;;;;5132609;27;20112;-79
2021/11/06 01:21:54;;;;;;;;;;;;;;;;;;5133052;27;19959;-80
2021/11/06 01:24:21;;;;;;;;;;;;;;;;;;5132949;27;19924;-80
2021/11/06 01:26:48;;;;;;;;;;;;;;;;;;5132887;27;20245;-80
2021/11/06 01:29:15;;;;;;;;;;;;;;;;;;5133243;27;19927;-80
2021/11/06 01:31:42;;;;;;;;;;;;;;;;;;5132918;27;19932;-79
2021/11/06 01:34:09;;;;;;;;;;;;;;;;;;5132714;27;20352;-81
2021/11/06 01:36:36;;;;;;;;;;;;;;;;;;5132377;27;19935;-79
2021/11/06 01:39:05;;;;;;;;;;;;;;;;;;5132913;27;19927;-79
2021/11/06 01:41:34;;;;;;;;;;;;;;;;;;5132882;27;20220;-80
2021/11/06 01:44:01;;;;;;;;;;;;;;;;;;5132640;27;20035;-77
2021/11/06 01:46:29;;;;;;;;;;;;;;;;;;5132707;27;19934;-77
2021/11/06 01:48:56;;;;;;;;;;;;;;;;;;5131958;27;19931;-78
2021/11/06 01:51:25;;;;;;;;;;;;;;;;;;5132546;27;20022;-77
2021/11/06 01:53:53;;;;;;;;;;;;;;;;;;5132721;27;19984;-78
2021/11/06 01:56:22;;;;;;;;;;;;;;;;;;5132442;27;19935;-80
2021/11/06 01:58:49;;;;;;;;;;;;;;;;;;5132458;27;19938;-77
2021/11/06 02:01:17;;;;;;;;;;;;;;;;;;5131926;27;19935;-78
2021/11/06 02:03:45;;;;;;;;;;;;;;;;;;5132901;27;19931;-80
2021/11/06 02:06:12;;;;;;;;;;;;;;;;;;5132530;27;20010;-80
2021/11/06 02:08:39;;;;;;;;;;;;;;;;;;5132030;27;20371;-80
2021/11/06 02:11:07;;;;;;;;;;;;;;;;;;5132266;27;19966;-80
2021/11/06 02:13:35;;;;;;;;;;;;;;;;;;5120369;27;19946;-80
2021/11/06 02:16:03;;;;;;;;;;;;;;;;;;5132285;27;20374;-78
2021/11/06 02:18:30;;;;;;;;;;;;;;;;;;5131432;27;19931;-78
2021/11/06 02:21:02;;;;;;;;;;;;;;;;;;5132283;27;20047;-78
2021/11/06 02:23:33;;;;;;;;;;;;;;;;;;5132041;27;20249;-78
2021/11/06 02:26:00;;;;;;;;;;;;;;;;;;5132422;27;20267;-80
2021/11/06 02:28:27;;;;;;;;;;;;;;;;;;5132175;27;19924;-80
2021/11/06 02:30:54;;;;;;;;;;;;;;;;;;5132052;27;19935;-80
2021/11/06 02:33:21;;;;;;;;;;;;;;;;;;5132267;27;19928;-80
2021/11/06 02:35:48;;;;;;;;;;;;;;;;;;5131928;28;20026;-78
2021/11/06 02:38:17;;;;;;;;;;;;;;;;;;5131699;27;19927;-77
2021/11/06 02:40:44;;;;;;;;;;;;;;;;;;5131956;28;19928;-79
2021/11/06 02:43:11;;;;;;;;;;;;;;;;;;5131874;28;19931;-77
2021/11/06 02:45:39;;;;;;;;;;;;;;;;;;5132099;28;20371;-79
2021/11/06 02:48:06;;;;;;;;;;;;;;;;;;5131896;28;19950;-77
2021/11/06 02:50:34;;;;;;;;;;;;;;;;;;5131719;28;19928;-79
2021/11/06 02:53:01;;;;;;;;;;;;;;;;;;5132020;28;19933;-80
2021/11/06 02:55:30;;;;;;;;;;;;;;;;;;5131894;28;19927;-78
2021/11/06 02:57:57;;;;;;;;;;;;;;;;;;5132135;27;20022;-77
2021/11/06 03:00:26;;;;;;;;;;;;;;;;;;5135735;27;20355;-77
2021/11/06 03:02:54;;;;;;;;;;;;;;;;;;5136522;27;19928;-78
2021/11/06 03:05:21;;;;;;;;;;;;;;;;;;5135893;27;20006;-78
2021/11/06 03:07:48;;;;;;;;;;;;;;;;;;5135334;27;20383;-78
2021/11/06 03:10:17;;;;;;;;;;;;;;;;;;5135894;27;19927;-78
2021/11/06 03:12:46;;;;;;;;;;;;;;;;;;5125248;27;20265;-77
2021/11/06 03:15:13;;;;;;;;;;;;;;;;;;5134646;27;19928;-77
2021/11/06 03:17:40;;;;;;;;;;;;;;;;;;5135642;27;19927;-77
2021/11/06 03:20:09;;;;;;;;;;;;;;;;;;5135265;27;20018;-78
2021/11/06 03:22:36;;;;;;;;;;;;;;;;;;5135499;27;19927;-78
2021/11/06 03:25:05;;;;;;;;;;;;;;;;;;5135175;27;20371;-78
2021/11/06 03:27:32;;;;;;;;;;;;;;;;;;5135242;27;20379;-79
2021/11/06 03:30:01;;;;;;;;;;;;;;;;;;5135653;27;20273;-79
2021/11/06 03:32:28;;;;;;;;;;;;;;;;;;5135716;27;20055;-78
2021/11/06 03:34:55;;;;;;;;;;;;;;;;;;5135397;27;19924;-80
2021/11/06 03:37:22;;;;;;;;;;;;;;;;;;5134620;27;19930;-77
2021/11/06 03:39:49;;;;;;;;;;;;;;;;;;5135032;27;19931;-78
2021/11/06 03:42:16;;;;;;;;;;;;;;;;;;5135166;27;20351;-78
2021/11/06 03:44:43;;;;;;;;;;;;;;;;;;5134984;27;20261;-78
2021/11/06 03:47:12;;;;;;;;;;;;;;;;;;5135123;27;20276;-81
2021/11/06 03:49:39;;;;;;;;;;;;;;;;;;5134210;27;19938;-80
2021/11/06 03:52:06;;;;;;;;;;;;;;;;;;5135096;27;19939;-78
2021/11/06 03:54:33;;;;;;;;;;;;;;;;;;5134840;27;19928;-77
2021/11/06 03:57:00;;;;;;;;;;;;;;;;;;5134970;27;19923;-79
2021/11/06 03:59:27;;;;;;;;;;;;;;;;;;5134780;27;19934;-78
2021/11/06 04:01:54;;;;;;;;;;;;;;;;;;5134554;27;20413;-78
2021/11/06 04:04:23;;;;;;;;;;;;;;;;;;5135265;27;19927;-78
2021/11/06 04:06:50;;;;;;;;;;;;;;;;;;5134371;27;19938;-78
2021/11/06 04:09:17;;;;;;;;;;;;;;;;;;5133970;27;19927;-79
2021/11/06 04:11:44;;;;;;;;;;;;;;;;;;5132205;27;19928;-78
2021/11/06 04:14:11;;;;;;;;;;;;;;;;;;5124689;27;20364;-78
2021/11/06 04:16:39;;;;;;;;;;;;;;;;;;5134295;27;19935;-79
2021/11/06 04:19:06;;;;;;;;;;;;;;;;;;5133948;27;19935;-78
2021/11/06 04:21:34;;;;;;;;;;;;;;;;;;5134237;27;19973;-78
2021/11/06 04:24:01;;;;;;;;;;;;;;;;;;5134269;27;19931;-78
2021/11/06 04:26:29;;;;;;;;;;;;;;;;;;5134142;27;19971;-79
2021/11/06 04:28:56;;;;;;;;;;;;;;;;;;5134242;27;19927;-79
2021/11/06 04:31:23;;;;;;;;;;;;;;;;;;5134207;27;19934;-79
2021/11/06 04:33:50;;;;;;;;;;;;;;;;;;5134255;27;19928;-79
2021/11/06 04:36:17;;;;;;;;;;;;;;;;;;5134117;27;19924;-79
2021/11/06 04:38:46;;;;;;;;;;;;;;;;;;5133494;27;19924;-80
2021/11/06 04:41:13;;;;;;;;;;;;;;;;;;5134326;27;19927;-79
2021/11/06 04:43:40;;;;;;;;;;;;;;;;;;5134214;27;19949;-79
2021/11/06 04:46:08;;;;;;;;;;;;;;;;;;5133829;27;19927;-79
2021/11/06 04:48:35;;;;;;;;;;;;;;;;;;5133784;27;19935;-78
2021/11/06 04:51:02;;;;;;;;;;;;;;;;;;5133366;27;19923;-78
2021/11/06 04:53:29;;;;;;;;;;;;;;;;;;5134015;27;19954;-79
2021/11/06 04:55:58;;;;;;;;;;;;;;;;;;5133513;27;19927;-78
2021/11/06 04:58:25;;;;;;;;;;;;;;;;;;5133741;27;19947;-78
2021/11/06 05:00:52;;;;;;;;;;;;;;;;;;5133905;27;20022;-77
2021/11/06 05:03:19;;;;;;;;;;;;;;;;;;5133675;27;20336;-80
2021/11/06 05:05:46;;;;;;;;;;;;;;;;;;5133128;27;19923;-80
2021/11/06 05:08:13;;;;;;;;;;;;;;;;;;5133740;27;20023;-78
2021/11/06 05:10:41;;;;;;;;;;;;;;;;;;5133255;27;19927;-78
2021/11/06 05:13:09;;;;;;;;;;;;;;;;;;5121722;27;19938;-78
2021/11/06 05:15:37;;;;;;;;;;;;;;;;;;5133079;27;19924;-78
2021/11/06 05:18:04;;;;;;;;;;;;;;;;;;5133112;27;20108;-77
2021/11/06 05:20:32;;;;;;;;;;;;;;;;;;5132993;27;19977;-78
2021/11/06 05:22:59;;;;;;;;;;;;;;;;;;5132910;27;19928;-78
2021/11/06 05:25:26;;;;;;;;;;;;;;;;;;5132661;27;19927;-79
2021/11/06 05:27:53;;;;;;;;;;;;;;;;;;5133043;27;19949;-79
2021/11/06 05:30:22;;;;;;;;;;;;;;;;;;5132972;27;19934;-79
2021/11/06 05:32:49;;;;;;;;;;;;;;;;;;5132851;27;19938;-79
2021/11/06 05:35:16;;;;;;;;;;;;;;;;;;5132969;27;20338;-79
2021/11/06 05:37:43;;;;;;;;;;;;;;;;;;5132690;27;20045;-78
2021/11/06 05:40:11;;;;;;;;;;;;;;;;;;5133015;27;19934;-78
2021/11/06 05:42:38;;;;;;;;;;;;;;;;;;5132951;27;19931;-79
2021/11/06 05:45:06;;;;;;;;;;;;;;;;;;5132487;27;20323;-80
2021/11/06 05:47:35;;;;;;;;;;;;;;;;;;5132529;27;19928;-79
2021/11/06 05:50:02;;;;;;;;;;;;;;;;;;5132027;27;19928;-80
2021/11/06 05:52:29;;;;;;;;;;;;;;;;;;5132792;27;19938;-80
2021/11/06 05:54:56;;;;;;;;;;;;;;;;;;5133558;27;19928;-77
2021/11/06 05:57:23;;;;;;;;;;;;;;;;;;5132353;27;19938;-78
2021/11/06 05:59:50;;;;;;;;;;;;;;;;;;5132547;27;19923;-78
2021/11/06 06:02:19;;;;;;;;;;;;;;;;;;5132128;27;20158;-78
2021/11/06 06:04:48;;;;;;;;;;;;;;;;;;5132558;27;19931;-78
2021/11/06 06:07:15;;;;;;;;;;;;;;;;;;5131955;27;19934;-79
2021/11/06 06:09:42;;;;;;;;;;;;;;;;;;5132541;27;20642;-79
2021/11/06 06:12:09;;;;;;;;;;;;;;;;;;5126819;27;19928;-79
2021/11/06 06:14:37;;;;;;;;;;;;;;;;;;5125951;27;19930;-79
2021/11/06 06:17:04;;;;;;;;;;;;;;;;;;5132404;27;19934;-80
2021/11/06 06:19:31;;;;;;;;;;;;;;;;;;5132093;27;19939;-79
2021/11/06 06:21:59;;;;;;;;;;;;;;;;;;5131828;27;19938;-78
2021/11/06 06:24:27;;;;;;;;;;;;;;;;;;5132106;27;20403;-78
2021/11/06 06:26:54;;;;;;;;;;;;;;;;;;5132021;27;19923;-78
2021/11/06 06:29:21;;;;;;;;;;;;;;;;;;5132054;27;19927;-78
2021/11/06 06:31:48;;;;;;;;;;;;;;;;;;5132132;27;19928;-78
2021/11/06 06:34:15;;;;;;;;;;;;;;;;;;5131038;27;19931;-77
2021/11/06 06:36:42;;;;;;;;;;;;;;;;;;5132262;28;19950;-78
2021/11/06 06:39:11;;;;;;;;;;;;;;;;;;5131842;28;19927;-78
2021/11/06 06:41:38;;;;;;;;;;;;;;;;;;5132025;28;19930;-78
2021/11/06 06:44:05;;;;;;;;;;;;;;;;;;5131609;28;19924;-78
2021/11/06 06:46:32;;;;;;;;;;;;;;;;;;5131731;28;19934;-79
2021/11/06 06:48:59;;;;;;;;;;;;;;;;;;5131637;27;19931;-79
2021/11/06 06:51:26;;;;;;;;;;;;;;;;;;5131555;28;19923;-79
2021/11/06 06:53:54;;;;;;;;;;;;;;;;;;5131471;28;20311;-79
2021/11/06 06:56:22;;;;;;;;;;;;;;;;;;5131613;28;19950;-79
2021/11/06 06:58:49;;;;;;;;;;;;;;;;;;5131617;28;19938;-79
2021/11/06 07:01:16;;;;;;;;;;;;;;;;;;5131688;28;19950;-79
2021/11/06 07:03:43;;;;;;;;;;;;;;;;;;5131900;28;19928;-79
2021/11/06 07:06:10;;;;;;;;;;;;;;;;;;5131388;28;19927;-79
2021/11/06 07:08:38;;;;;;;;;;;;;;;;;;5131343;28;20364;-78
2021/11/06 07:11:05;;;;;;;;;;;;;;;;;;5131350;28;20279;-79
2021/11/06 07:13:36;;;;;;;;;;;;;;;;;;5119644;28;19931;-79
2021/11/06 07:16:03;;;;;;;;;;;;;;;;;;5131736;28;19930;-79
2021/11/06 07:18:30;;;;;;;;;;;;;;;;;;5131337;28;19935;-79
2021/11/06 07:20:57;;;;;;;;;;;;;;;;;;5131186;28;19923;-78
2021/11/06 07:23:24;;;;;;;;;;;;;;;;;;5131610;28;19924;-79
2021/11/06 07:25:58;;;;;;;;;;;;;;;;;;5131196;28;19934;-78
2021/11/06 07:28:25;;;;;;;;;;;;;;;;;;5131503;28;19968;-77
2021/11/06 07:30:54;;;;;;;;;;;;;;;;;;5131377;28;20303;-78
2021/11/06 07:33:21;;;;;;;;;;;;;;;;;;5131231;28;19923;-81
2021/11/06 07:35:48;;;;;;;;;;;;;;;;;;5131170;28;19923;-78
2021/11/06 07:38:15;;;;;;;;;;;;;;;;;;5130907;28;19927;-80
2021/11/06 07:40:43;;;;;;;;;;;;;;;;;;5131052;28;19935;-78
2021/11/06 07:43:10;;;;;;;;;;;;;;;;;;5131216;28;19934;-79
2021/11/06 07:45:37;;;;;;;;;;;;;;;;;;5134059;27;19927;-78
2021/11/06 07:48:06;;;;;;;;;;;;;;;;;;5134484;27;19927;-77
2021/11/06 07:50:33;;;;;;;;;;;;;;;;;;5134675;27;19923;-78
2021/11/06 07:53:01;;;;;;;;;;;;;;;;;;5134641;27;19927;-77
2021/11/06 07:55:28;;;;;;;;;;;;;;;;;;5134629;27;19927;-78
2021/11/06 07:57:55;;;;;;;;;;;;;;;;;;5134567;27;19928;-77
2021/11/06 08:00:22;;;;;;;;;;;;;;;;;;5134711;27;19931;-79
2021/11/06 08:02:49;;;;;;;;;;;;;;;;;;5134348;27;19927;-80
2021/11/06 08:05:18;;;;;;;;;;;;;;;;;;5134392;27;19930;-79
2021/11/06 08:07:45;;;;;;;;;;;;;;;;;;5134491;27;20375;-80
2021/11/06 08:10:13;;;;;;;;;;;;;;;;;;5134577;27;20255;-79
2021/11/06 08:12:41;;;;;;;;;;;;;;;;;;5124432;27;19931;-79
2021/11/06 08:15:10;;;;;;;;;;;;;;;;;;5132736;27;19927;-79
2021/11/06 08:17:37;;;;;;;;;;;;;;;;;;5134378;27;20195;-78
2021/11/06 08:20:05;;;;;;;;;;;;;;;;;;5134207;27;19934;-80
2021/11/06 08:22:33;;;;;;;;;;;;;;;;;;5134069;27;19923;-81
2021/11/06 08:25:00;;;;;;;;;;;;;;;;;;5134230;27;19923;-78
2021/11/06 08:27:28;;;;;;;;;;;;;;;;;;5134184;27;20307;-79
2021/11/06 08:29:55;;;;;;;;;;;;;;;;;;5133759;27;19924;-80
2021/11/06 08:32:22;;;;;;;;;;;;;;;;;;5134463;27;19931;-78
2021/11/06 08:34:49;;;;;;;;;;;;;;;;;;5133947;27;20358;-79
2021/11/06 08:37:16;;;;;;;;;;;;;;;;;;5133436;27;19927;-77
2021/11/06 08:39:45;;;;;;;;;;;;;;;;;;5134312;27;20356;-80
2021/11/06 08:42:12;;;;;;;;;;;;;;;;;;5133687;27;19935;-79
2021/11/06 08:44:39;;;;;;;;;;;;;;;;;;5134394;27;19928;-79
2021/11/06 08:47:06;;;;;;;;;;;;;;;;;;5133585;27;19927;-79
2021/11/06 08:49:33;;;;;;;;;;;;;;;;;;5133355;27;19923;-78
2021/11/06 08:52:01;;;;;;;;;;;;;;;;;;5133433;27;19935;-78
2021/11/06 08:54:28;;;;;;;;;;;;;;;;;;5133509;27;19932;-78
2021/11/06 08:56:56;;;;;;;;;;;;;;;;;;5133131;27;20416;-78
2021/11/06 08:59:24;;;;;;;;;;;;;;;;;;5133842;27;19930;-80
2021/11/06 09:01:52;;;;;;;;;;;;;;;;;;5133504;27;20386;-78
2021/11/06 09:04:19;;;;;;;;;;;;;;;;;;5133597;27;20268;-80
2021/11/06 09:06:46;;;;;;;;;;;;;;;;;;5133260;27;19927;-78
2021/11/06 09:09:15;;;;;;;;;;;;;;;;;;5133844;27;19923;-77
2021/11/06 09:11:44;;;;;;;;;;;;;;;;;;5133509;27;19956;-77
2021/11/06 09:14:13;;;;;;;;;;;;;;;;;;5133780;27;19928;-79
2021/11/06 09:16:40;;;;;;;;;;;;;;;;;;5133531;27;19954;-80
2021/11/06 09:19:07;;;;;;;;;;;;;;;;;;5133452;27;20384;-80
2021/11/06 09:21:34;;;;;;;;;;;;;;;;;;5133394;27;19943;-78
2021/11/06 09:24:03;;;;;;;;;;;;;;;;;;5133254;27;19935;-78
2021/11/06 09:26:31;;;;;;;;;;;;;;;;;;5132704;27;20348;-78
2021/11/06 09:28:58;;;;;;;;;;;;;;;;;;5132842;27;20378;-78
2021/11/06 09:31:27;;;;;;;;;;;;;;;;;;5133605;27;20143;-78
2021/11/06 09:33:54;;;;;;;;;;;;;;;;;;5133577;27;19927;-78
2021/11/06 09:36:22;;;;;;;;;;;;;;;;;;5132756;27;19923;-78
2021/11/06 09:38:49;;;;;;;;;;;;;;;;;;5132733;27;20367;-78
2021/11/06 09:41:17;;;;;;;;;;;;;;;;;;5132996;27;19954;-80
2021/11/06 09:43:45;;;;;;;;;;;;;;;;;;5132966;27;19938;-80
2021/11/06 09:46:12;;;;;;;;;;;;;;;;;;5132626;27;20268;-78
2021/11/06 09:48:42;;;;;;;;;;;;;;;;;;5132223;27;20388;-78
2021/11/06 09:51:10;;;;;;;;;;;;;;;;;;5132420;27;19927;-78
2021/11/06 09:53:40;;;;;;;;;;;;;;;;;;5132265;27;19923;-83
2021/11/06 09:56:07;;;;;;;;;;;;;;;;;;5131573;27;20282;-78
2021/11/06 09:58:35;;;;;;;;;;;;;;;;;;5132310;27;20340;-79
2021/11/06 10:01:03;;;;;;;;;;;;;;;;;;5131573;27;19934;-80
2021/11/06 10:03:30;;;;;;;;;;;;;;;;;;5130835;27;20355;-80
2021/11/06 10:06:00;;;;;;;;;;;;;;;;;;5132530;27;19924;-80
2021/11/06 10:08:29;;;;;;;;;;;;;;;;;;5130792;27;19923;-77
2021/11/06 10:10:57;;;;;;;;;;;;;;;;;;5131332;27;20340;-81
2021/11/06 10:13:25;;;;;;;;;;;;;;;;;;5131739;27;19927;-79
2021/11/06 10:15:54;;;;;;;;;;;;;;;;;;5130696;27;19933;-81
2021/11/06 10:18:22;;;;;;;;;;;;;;;;;;5131440;27;20355;-77
2021/11/06 10:20:50;;;;;;;;;;;;;;;;;;5131024;27;19938;-78
2021/11/06 10:23:21;;;;;;;;;;;;;;;;;;5131086;27;19927;-80
2021/11/06 10:25:48;;;;;;;;;;;;;;;;;;5131328;27;19923;-78
2021/11/06 10:28:15;;;;;;;;;;;;;;;;;;5131311;27;19924;-79
2021/11/06 10:30:44;;;;;;;;;;;;;;;;;;5131041;27;19927;-78
2021/11/06 10:33:12;;;;;;;;;;;;;;;;;;5131522;27;19934;-80
2021/11/06 10:35:40;;;;;;;;;;;;;;;;;;5130803;27;19984;-77
2021/11/06 10:38:09;;;;;;;;;;;;;;;;;;5130147;28;19996;-80
2021/11/06 10:40:40;;;;;;;;;;;;;;;;;;5130711;28;19976;-78
2021/11/06 10:43:07;;;;;;;;;;;;;;;;;;5130806;28;19942;-77
2021/11/06 10:45:44;;;;;;;;;;;;;;;;;;5131140;28;19928;-80
2021/11/06 10:48:12;;;;;;;;;;;;;;;;;;5131035;28;19927;-77
2021/11/06 10:50:41;;;;;;;;;;;;;;;;;;5131180;28;19927;-81
2021/11/06 10:53:08;;;;;;;;;;;;;;;;;;5131677;28;19968;-80
2021/11/06 10:55:37;;;;;;;;;;;;;;;;;;5131736;28;20257;-79
2021/11/06 10:58:20;;;;;;;;;;;;;;;;;;5131324;28;19927;-77
2021/11/06 11:00:51;;;;;;;;;;;;;;;;;;5131052;28;20502;-80
2021/11/06 11:03:23;;;;;;;;;;;;;;;;;;5130725;28;19923;-80
2021/11/06 11:05:50;;;;;;;;;;;;;;;;;;5131633;28;19931;-78
2021/11/06 11:08:17;;;;;;;;;;;;;;;;;;5132830;28;19930;-80
2021/11/06 11:10:45;;;;;;;;;;;;;;;;;;5131828;28;20038;-80
2021/11/06 11:13:15;;;;;;;;;;;;;;;;;;5130192;28;19927;-79
2021/11/06 11:15:43;;;;;;;;;;;;;;;;;;5111478;28;19924;-79
2021/11/06 11:18:29;;;;;;;;;;;;;;;;;;5111085;28;19927;-78
2021/11/06 11:21:07;;;;;;;;;;;;;;;;;;5119237;28;19938;-78
2021/11/06 11:23:34;;;;;;;;;;;;;;;;;;5120992;27;19938;-77
2021/11/06 11:26:01;;;;;;;;;;;;;;;;;;5135003;27;19934;-80
2021/11/06 11:28:30;;;;;;;;;;;;;;;;;;5136130;27;20026;-80
2021/11/06 11:30:57;;;;;;;;;;;;;;;;;;5136980;27;20256;-78
2021/11/06 11:33:24;;;;;;;;;;;;;;;;;;5136381;27;19938;-80
2021/11/06 11:35:51;;;;;;;;;;;;;;;;;;5136703;27;20264;-79
2021/11/06 11:38:20;;;;;;;;;;;;;;;;;;5134701;27;19923;-78
2021/11/06 11:40:52;;;;;;;;;;;;;;;;;;5135304;27;20259;-80
2021/11/06 11:43:27;;;;;;;;;;;;;;;;;;5137427;27;19966;-77
2021/11/06 11:45:58;;;;;;;;;;;;;;;;;;5140159;27;19932;-79
2021/11/06 11:48:27;;;;;;;;;;;;;;;;;;5135793;27;19927;-78
2021/11/06 11:50:58;;;;;;;;;;;;;;;;;;5139265;27;19985;-78
2021/11/06 11:53:27;;;;;;;;;;;;;;;;;;5137559;27;19938;-78
2021/11/06 11:55:56;;;;;;;;;;;;;;;;;;5134833;27;19927;-78
2021/11/06 11:58:24;;;;;;;;;;;;;;;;;;5135478;27;19982;-78
2021/11/06 12:00:53;;;;;;;;;;;;;;;;;;5136318;27;20006;-78
2021/11/06 12:03:29;;;;;;;;;;;;;;;;;;5134968;27;19929;-77
2021/11/06 12:05:56;;;;;;;;;;;;;;;;;;5134713;27;19927;-78
2021/11/06 12:08:28;;;;;;;;;;;;;;;;;;5134433;27;20371;-77
2021/11/06 12:10:58;;;;;;;;;;;;;;;;;;5135277;27;19928;-77
2021/11/06 12:13:35;;;;;;;;;;;;;;;;;;5135341;27;19980;-77
2021/11/06 12:16:04;;;;;;;;;;;;;;;;;;5135194;27;19925;-77
2021/11/06 12:18:49;;;;;;;;;;;;;;;;;;5135213;27;19923;-77
2021/11/06 12:21:28;;;;;;;;;;;;;;;;;;5135022;27;19927;-76
2021/11/06 12:23:56;;;;;;;;;;;;;;;;;;5135089;27;20010;-77
2021/11/06 12:26:24;;;;;;;;;;;;;;;;;;5134972;27;19977;-80
2021/11/06 12:28:53;;;;;;;;;;;;;;;;;;5134992;27;19924;-77
2021/11/06 12:31:30;;;;;;;;;;;;;;;;;;5133795;27;19928;-79
2021/11/06 12:34:00;;;;;;;;;;;;;;;;;;5134580;27;19934;-78
2021/11/06 12:36:28;;;;;;;;;;;;;;;;;;5134658;27;19927;-79
2021/11/06 12:38:56;;;;;;;;;;;;;;;;;;5133850;27;19927;-77
2021/11/06 12:41:26;;;;;;;;;;;;;;;;;;5132606;27;19923;-82
2021/11/06 12:43:53;;;;;;;;;;;;;;;;;;5132598;27;19981;-78
2021/11/06 12:46:23;;;;;;;;;;;;;;;;;;5125017;27;19934;-81
2021/11/06 12:48:50;;;;;;;;;;;;;;;;;;5134640;27;19980;-79
2021/11/06 12:51:20;;;;;;;;;;;;;;;;;;5136589;27;19934;-78
2021/11/06 12:53:48;;;;;;;;;;;;;;;;;;5134089;27;19927;-79
2021/11/06 12:56:16;;;;;;;;;;;;;;;;;;5134737;27;19927;-80
2021/11/06 12:58:44;;;;;;;;;;;;;;;;;;5134372;27;19923;-81
2021/11/06 13:01:19;;;;;;;;;;;;;;;;;;5134213;27;19980;-81
2021/11/06 13:03:46;;;;;;;;;;;;;;;;;;5134391;27;19935;-82
2021/11/06 13:06:17;;;;;;;;;;;;;;;;;;5133906;27;19923;-81
2021/11/06 13:08:59;;;;;;;;;;;;;;;;;;5133953;27;19928;-82
2021/11/06 13:11:42;;;;;;;;;;;;;;;;;;5134052;27;19923;-81
2021/11/06 13:14:09;;;;;;;;;;;;;;;;;;5122839;27;19935;-81
2021/11/06 13:16:38;;;;;;;;;;;;;;;;;;5134002;27;19957;-81
2021/11/06 13:19:05;;;;;;;;;;;;;;;;;;5134436;27;20364;-81
2021/11/06 13:21:42;;;;;;;;;;;;;;;;;;5134522;27;20227;-81
2021/11/06 13:24:09;;;;;;;;;;;;;;;;;;5133668;27;20348;-81
2021/11/06 13:26:37;;;;;;;;;;;;;;;;;;5133837;27;19928;-82
2021/11/06 13:29:04;;;;;;;;;;;;;;;;;;5133793;27;19931;-80
2021/11/06 13:31:31;;;;;;;;;;;;;;;;;;5133611;27;19924;-81
2021/11/06 13:33:58;;;;;;;;;;;;;;;;;;5133577;27;19923;-81
2021/11/06 13:36:26;;;;;;;;;;;;;;;;;;5133247;27;19932;-81
2021/11/06 13:38:54;;;;;;;;;;;;;;;;;;5133025;27;20367;-82
2021/11/06 13:41:22;;;;;;;;;;;;;;;;;;5133461;27;19934;-80
2021/11/06 13:43:52;;;;;;;;;;;;;;;;;;5133116;27;19927;-81
2021/11/06 13:46:36;;;;;;;;;;;;;;;;;;5132878;27;19927;-81
2021/11/06 13:49:08;;;;;;;;;;;;;;;;;;5132943;27;19923;-81
2021/11/06 13:51:38;;;;;;;;;;;;;;;;;;5132489;27;19939;-81
2021/11/06 13:54:07;;;;;;;;;;;;;;;;;;5132874;27;19942;-81
2021/11/06 13:56:44;;;;;;;;;;;;;;;;;;5112437;28;19950;-80
2021/11/06 13:59:13;;;;;;;;;;;;;;;;;;5112014;28;19923;-81
2021/11/06 14:01:40;;;;;;;;;;;;;;;;;;5112339;28;19950;-80
2021/11/06 14:04:08;;;;;;;;;;;;;;;;;;5111053;28;19928;-82
2021/11/06 14:06:38;;;;;;;;;;;;;;;;;;5111994;28;19942;-81
2021/11/06 14:09:06;;;;;;;;;;;;;;;;;;5111889;28;19939;-80
2021/11/06 14:11:45;;;;;;;;;;;;;;;;;;5111654;28;20367;-80
2021/11/06 14:14:14;;;;;;;;;;;;;;;;;;5111972;28;19939;-80
2021/11/06 14:16:42;;;;;;;;;;;;;;;;;;5111686;28;20263;-80
2021/11/06 14:19:12;;;;;;;;;;;;;;;;;;5111835;28;19934;-82
2021/11/06 14:21:41;;;;;;;;;;;;;;;;;;5111813;28;19923;-80
2021/11/06 14:24:08;;;;;;;;;;;;;;;;;;5111516;28;20014;-80
2021/11/06 14:26:43;;;;;;;;;;;;;;;;;;5112086;28;20250;-80
2021/11/06 14:29:11;;;;;;;;;;;;;;;;;;5112008;28;19928;-80
2021/11/06 14:31:40;;;;;;;;;;;;;;;;;;5111843;28;19923;-80
2021/11/06 14:34:17;;;;;;;;;;;;;;;;;;5111460;28;19928;-79
2021/11/06 14:36:52;;;;;;;;;;;;;;;;;;5111366;28;20256;-81
2021/11/06 14:39:19;;;;;;;;;;;;;;;;;;5111498;28;19970;-82
2021/11/06 14:41:54;;;;;;;;;;;;;;;;;;5111279;28;19939;-81
2021/11/06 14:44:22;;;;;;;;;;;;;;;;;;5111636;28;19931;-81
2021/11/06 14:46:52;;;;;;;;;;;;;;;;;;5111296;28;20039;-81
2021/11/06 14:49:20;;;;;;;;;;;;;;;;;;5111882;28;20012;-80
2021/11/06 14:51:52;;;;;;;;;;;;;;;;;;5111713;28;20341;-81
2021/11/06 14:54:19;;;;;;;;;;;;;;;;;;5113915;27;19934;-81
2021/11/06 14:56:47;;;;;;;;;;;;;;;;;;5136075;27;19927;-80
2021/11/06 14:59:14;;;;;;;;;;;;;;;;;;5136231;27;19924;-79
2021/11/06 15:01:55;;;;;;;;;;;;;;;;;;5136498;27;20009;-79
2021/11/06 15:04:22;;;;;;;;;;;;;;;;;;5136218;27;19927;-80
2021/11/06 15:06:56;;;;;;;;;;;;;;;;;;5135746;27;20620;-80
2021/11/06 15:09:23;;;;;;;;;;;;;;;;;;5135810;27;19934;-80
2021/11/06 15:11:50;;;;;;;;;;;;;;;;;;5133076;27;19927;-81
2021/11/06 15:14:17;;;;;;;;;;;;;;;;;;5129953;27;20006;-82
2021/11/06 15:16:49;;;;;;;;;;;;;;;;;;5135995;27;19927;-82
2021/11/06 15:19:18;;;;;;;;;;;;;;;;;;5135925;27;19938;-82
2021/11/06 15:21:46;;;;;;;;;;;;;;;;;;5135924;27;20372;-80
2021/11/06 15:24:14;;;;;;;;;;;;;;;;;;5136255;27;19935;-81
2021/11/06 15:26:41;;;;;;;;;;;;;;;;;;5135526;27;19970;-80
2021/11/06 15:29:09;;;;;;;;;;;;;;;;;;5135551;27;19923;-82
2021/11/06 15:31:36;;;;;;;;;;;;;;;;;;5135817;27;19950;-82
2021/11/06 15:34:03;;;;;;;;;;;;;;;;;;5135957;27;19934;-81
2021/11/06 15:36:32;;;;;;;;;;;;;;;;;;5134955;27;19928;-81
2021/11/06 15:38:59;;;;;;;;;;;;;;;;;;5135232;27;19923;-82
2021/11/06 15:41:26;;;;;;;;;;;;;;;;;;5135606;27;19954;-79
2021/11/06 15:43:53;;;;;;;;;;;;;;;;;;5135672;27;19959;-80
2021/11/06 15:46:20;;;;;;;;;;;;;;;;;;5135496;27;20256;-80
2021/11/06 15:48:48;;;;;;;;;;;;;;;;;;5135583;27;20256;-80
2021/11/06 15:51:23;;;;;;;;;;;;;;;;;;5136259;27;19928;-79
2021/11/06 15:53:52;;;;;;;;;;;;;;;;;;5135627;27;19935;-82
2021/11/06 15:56:19;;;;;;;;;;;;;;;;;;5134911;27;19923;-80
2021/11/06 15:58:46;;;;;;;;;;;;;;;;;;5135166;27;20311;-82
2021/11/06 16:01:13;;;;;;;;;;;;;;;;;;5134862;27;19923;-79
2021/11/06 16:03:41;;;;;;;;;;;;;;;;;;5135105;27;20352;-80
2021/11/06 16:06:09;;;;;;;;;;;;;;;;;;5134717;27;19930;-82
2021/11/06 16:08:36;;;;;;;;;;;;;;;;;;5134736;27;20720;-80
2021/11/06 16:11:04;;;;;;;;;;;;;;;;;;5135227;27;19923;-79
2021/11/06 16:13:31;;;;;;;;;;;;;;;;;;5122537;27;19927;-80
2021/11/06 16:16:03;;;;;;;;;;;;;;;;;;5135140;27;19924;-80
2021/11/06 16:18:35;;;;;;;;;;;;;;;;;;5135320;27;20356;-79
2021/11/06 16:21:05;;;;;;;;;;;;;;;;;;5135109;27;20018;-80
2021/11/06 16:23:32;;;;;;;;;;;;;;;;;;5134690;27;19968;-82
2021/11/06 16:25:59;;;;;;;;;;;;;;;;;;5134228;27;19935;-82
2021/11/06 16:28:28;;;;;;;;;;;;;;;;;;5134247;27;20355;-82
2021/11/06 16:30:55;;;;;;;;;;;;;;;;;;5134509;27;19995;-83
2021/11/06 16:33:22;;;;;;;;;;;;;;;;;;5134365;27;19927;-81
2021/11/06 16:35:49;;;;;;;;;;;;;;;;;;5134573;27;19927;-81
2021/11/06 16:38:17;;;;;;;;;;;;;;;;;;5134109;27;19927;-81
2021/11/06 16:40:44;;;;;;;;;;;;;;;;;;5134634;27;19923;-82
2021/11/06 16:43:11;;;;;;;;;;;;;;;;;;5134224;27;19923;-82
2021/11/06 16:45:39;;;;;;;;;;;;;;;;;;5134239;27;20364;-82
2021/11/06 16:48:10;;;;;;;;;;;;;;;;;;5134045;27;20309;-83
2021/11/06 16:50:37;;;;;;;;;;;;;;;;;;5134188;27;19949;-82
2021/11/06 16:53:04;;;;;;;;;;;;;;;;;;5134095;27;20356;-80